sensor_id;sensor_type;location;lat;lon;timestamp;P1;durP1;ratioP1;P2;durP2;ratioP2
6121;SDS011;3091;51.506;7.672;2023-03-26T00:02:06;17.20;;;16.50;;
6121;SDS011;3091;51.506;7.672;2023-03-26T00:04:32;16.97;;;16.27;;
6121;SDS011;3091;51.506;7.672;2023-03-26T00:06:58;16.80;;;16.10;;
6121;SDS011;3091;51.506;7.672;2023-03-26T00:09:24;16.77;;;16.07;;
6121;SDS011;3091;51.506;7.672;2023-03-26T00:11:50;17.37;;;16.57;;
6121;SDS011;3091;51.506;7.672;2023-03-26T00:14:16;17.37;;;16.47;;
6121;SDS011;3091;51.506;7.672;2023-03-26T00:16:42;16.73;;;16.13;;
6121;SDS011;3091;51.506;7.672;2023-03-26T00:19:08;16.97;;;16.27;;
6121;SDS011;3091;51.506;7.672;2023-03-26T00:21:35;16.90;;;16.20;;
6121;SDS011;3091;51.506;7.672;2023-03-26T00:24:05;16.50;;;15.80;;
6121;SDS011;3091;51.506;7.672;2023-03-26T00:26:32;17.23;;;16.50;;
6121;SDS011;3091;51.506;7.672;2023-03-26T00:28:58;17.37;;;16.57;;
6121;SDS011;3091;51.506;7.672;2023-03-26T00:31:24;16.40;;;15.70;;
6121;SDS011;3091;51.506;7.672;2023-03-26T00:33:51;16.60;;;15.90;;
6121;SDS011;3091;51.506;7.672;2023-03-26T00:36:19;17.30;;;16.60;;
6121;SDS011;3091;51.506;7.672;2023-03-26T00:38:45;16.33;;;15.63;;
6121;SDS011;3091;51.506;7.672;2023-03-26T00:41:13;17.47;;;16.77;;
6121;SDS011;3091;51.506;7.672;2023-03-26T00:43:46;16.90;;;16.20;;
6121;SDS011;3091;51.506;7.672;2023-03-26T00:46:13;16.93;;;16.10;;
6121;SDS011;3091;51.506;7.672;2023-03-26T00:48:39;17.03;;;16.33;;
6121;SDS011;3091;51.506;7.672;2023-03-26T00:51:07;17.30;;;16.17;;
6121;SDS011;3091;51.506;7.672;2023-03-26T00:53:33;16.30;;;15.60;;
6121;SDS011;3091;51.506;7.672;2023-03-26T00:56:02;16.60;;;15.90;;
6121;SDS011;3091;51.506;7.672;2023-03-26T00:58:28;16.73;;;16.03;;
6121;SDS011;3091;51.506;7.672;2023-03-26T01:00:56;17.30;;;16.60;;
6121;SDS011;3091;51.506;7.672;2023-03-26T01:03:23;16.20;;;15.50;;
6121;SDS011;3091;51.506;7.672;2023-03-26T01:05:50;18.50;;;17.40;;
6121;SDS011;3091;51.506;7.672;2023-03-26T01:08:32;16.50;;;15.90;;
6121;SDS011;3091;51.506;7.672;2023-03-26T01:11:03;17.60;;;16.80;;
6121;SDS011;3091;51.506;7.672;2023-03-26T01:13:35;16.40;;;15.80;;
6121;SDS011;3091;51.506;7.672;2023-03-26T01:16:06;19.60;;;18.13;;
6121;SDS011;3091;51.506;7.672;2023-03-26T01:18:33;16.50;;;15.80;;
6121;SDS011;3091;51.506;7.672;2023-03-26T01:21:04;17.70;;;16.40;;
6121;SDS011;3091;51.506;7.672;2023-03-26T01:23:55;16.50;;;15.90;;
6121;SDS011;3091;51.506;7.672;2023-03-26T01:29:02;15.77;;;15.17;;
6121;SDS011;3091;51.506;7.672;2023-03-26T01:34:27;16.60;;;16.00;;
6121;SDS011;3091;51.506;7.672;2023-03-26T01:37:03;17.60;;;16.70;;
6121;SDS011;3091;51.506;7.672;2023-03-26T01:42:06;16.33;;;15.73;;
6121;SDS011;3091;51.506;7.672;2023-03-26T01:44:40;16.43;;;15.73;;
6121;SDS011;3091;51.506;7.672;2023-03-26T01:47:11;16.00;;;15.40;;
6121;SDS011;3091;51.506;7.672;2023-03-26T01:49:38;16.50;;;15.70;;
6121;SDS011;3091;51.506;7.672;2023-03-26T01:52:05;16.07;;;15.47;;
6121;SDS011;3091;51.506;7.672;2023-03-26T01:54:36;17.13;;;16.53;;
6121;SDS011;3091;51.506;7.672;2023-03-26T02:07:50;16.47;;;15.77;;
6121;SDS011;3091;51.506;7.672;2023-03-26T02:12:46;16.80;;;16.20;;
6121;SDS011;3091;51.506;7.672;2023-03-26T02:15:12;16.90;;;16.30;;
6121;SDS011;3091;51.506;7.672;2023-03-26T02:17:38;20.83;;;19.83;;
6121;SDS011;3091;51.506;7.672;2023-03-26T02:20:06;19.03;;;18.03;;
6121;SDS011;3091;51.506;7.672;2023-03-26T02:22:36;17.30;;;16.70;;
6121;SDS011;3091;51.506;7.672;2023-03-26T02:25:13;17.90;;;17.20;;
6121;SDS011;3091;51.506;7.672;2023-03-26T02:27:39;18.23;;;17.13;;
6121;SDS011;3091;51.506;7.672;2023-03-26T02:30:08;16.03;;;15.43;;
6121;SDS011;3091;51.506;7.672;2023-03-26T02:32:34;16.50;;;15.90;;
6121;SDS011;3091;51.506;7.672;2023-03-26T02:35:01;17.03;;;16.43;;
6121;SDS011;3091;51.506;7.672;2023-03-26T02:37:27;15.83;;;15.23;;
6121;SDS011;3091;51.506;7.672;2023-03-26T02:39:54;16.40;;;15.80;;
6121;SDS011;3091;51.506;7.672;2023-03-26T02:42:23;16.30;;;15.70;;
6121;SDS011;3091;51.506;7.672;2023-03-26T02:44:49;15.90;;;15.30;;
6121;SDS011;3091;51.506;7.672;2023-03-26T02:47:15;16.87;;;16.13;;
6121;SDS011;3091;51.506;7.672;2023-03-26T02:49:41;16.53;;;15.83;;
6121;SDS011;3091;51.506;7.672;2023-03-26T02:52:07;16.00;;;15.40;;
6121;SDS011;3091;51.506;7.672;2023-03-26T02:54:33;15.80;;;15.20;;
6121;SDS011;3091;51.506;7.672;2023-03-26T02:56:59;15.90;;;15.30;;
6121;SDS011;3091;51.506;7.672;2023-03-26T02:59:25;16.13;;;15.43;;
6121;SDS011;3091;51.506;7.672;2023-03-26T03:01:54;16.17;;;15.47;;
6121;SDS011;3091;51.506;7.672;2023-03-26T03:04:20;16.80;;;15.80;;
6121;SDS011;3091;51.506;7.672;2023-03-26T03:06:46;16.20;;;15.50;;
6121;SDS011;3091;51.506;7.672;2023-03-26T03:09:16;16.20;;;15.60;;
6121;SDS011;3091;51.506;7.672;2023-03-26T03:11:43;33.70;;;17.13;;
6121;SDS011;3091;51.506;7.672;2023-03-26T03:14:09;18.30;;;17.23;;
6121;SDS011;3091;51.506;7.672;2023-03-26T03:16:35;16.57;;;15.57;;
6121;SDS011;3091;51.506;7.672;2023-03-26T03:19:01;15.37;;;14.77;;
6121;SDS011;3091;51.506;7.672;2023-03-26T03:21:30;15.90;;;15.30;;
6121;SDS011;3091;51.506;7.672;2023-03-26T03:23:56;14.53;;;14.03;;
6121;SDS011;3091;51.506;7.672;2023-03-26T03:26:22;14.93;;;14.43;;
6121;SDS011;3091;51.506;7.672;2023-03-26T03:28:52;14.50;;;14.00;;
6121;SDS011;3091;51.506;7.672;2023-03-26T03:31:20;15.00;;;14.40;;
6121;SDS011;3091;51.506;7.672;2023-03-26T03:33:46;15.33;;;14.73;;
6121;SDS011;3091;51.506;7.672;2023-03-26T03:36:13;14.50;;;14.00;;
6121;SDS011;3091;51.506;7.672;2023-03-26T03:38:42;15.40;;;14.90;;
6121;SDS011;3091;51.506;7.672;2023-03-26T03:41:08;16.10;;;15.50;;
6121;SDS011;3091;51.506;7.672;2023-03-26T03:43:34;17.40;;;16.20;;
6121;SDS011;3091;51.506;7.672;2023-03-26T03:46:00;16.47;;;15.87;;
6121;SDS011;3091;51.506;7.672;2023-03-26T03:48:27;17.03;;;16.43;;
6121;SDS011;3091;51.506;7.672;2023-03-26T03:50:53;16.47;;;15.77;;
6121;SDS011;3091;51.506;7.672;2023-03-26T03:53:20;17.73;;;17.00;;
6121;SDS011;3091;51.506;7.672;2023-03-26T03:55:46;16.40;;;15.80;;
6121;SDS011;3091;51.506;7.672;2023-03-26T03:58:18;16.10;;;15.50;;
6121;SDS011;3091;51.506;7.672;2023-03-26T04:00:46;15.90;;;15.30;;
6121;SDS011;3091;51.506;7.672;2023-03-26T04:03:13;16.00;;;15.40;;
6121;SDS011;3091;51.506;7.672;2023-03-26T04:05:39;15.73;;;15.13;;
6121;SDS011;3091;51.506;7.672;2023-03-26T04:08:05;16.70;;;16.10;;
6121;SDS011;3091;51.506;7.672;2023-03-26T04:10:31;16.40;;;15.80;;
6121;SDS011;3091;51.506;7.672;2023-03-26T04:12:57;17.17;;;16.27;;
6121;SDS011;3091;51.506;7.672;2023-03-26T04:15:23;16.20;;;15.60;;
6121;SDS011;3091;51.506;7.672;2023-03-26T04:17:49;16.10;;;15.50;;
6121;SDS011;3091;51.506;7.672;2023-03-26T04:20:18;15.20;;;14.60;;
6121;SDS011;3091;51.506;7.672;2023-03-26T04:22:44;14.93;;;14.33;;
6121;SDS011;3091;51.506;7.672;2023-03-26T04:25:11;14.80;;;14.20;;
6121;SDS011;3091;51.506;7.672;2023-03-26T04:27:37;15.00;;;14.40;;
6121;SDS011;3091;51.506;7.672;2023-03-26T04:30:05;14.70;;;14.10;;
6121;SDS011;3091;51.506;7.672;2023-03-26T04:32:32;14.70;;;14.10;;
6121;SDS011;3091;51.506;7.672;2023-03-26T04:34:59;17.13;;;16.23;;
6121;SDS011;3091;51.506;7.672;2023-03-26T04:37:37;15.93;;;15.20;;
6121;SDS011;3091;51.506;7.672;2023-03-26T04:40:08;13.80;;;13.30;;
6121;SDS011;3091;51.506;7.672;2023-03-26T04:42:37;15.33;;;12.07;;
6121;SDS011;3091;51.506;7.672;2023-03-26T04:45:10;12.30;;;11.90;;
6121;SDS011;3091;51.506;7.672;2023-03-26T04:47:36;14.63;;;13.93;;
6121;SDS011;3091;51.506;7.672;2023-03-26T04:50:03;14.63;;;14.03;;
6121;SDS011;3091;51.506;7.672;2023-03-26T04:52:30;13.93;;;13.43;;
6121;SDS011;3091;51.506;7.672;2023-03-26T04:54:58;12.83;;;12.43;;
6121;SDS011;3091;51.506;7.672;2023-03-26T04:57:26;14.70;;;13.53;;
6121;SDS011;3091;51.506;7.672;2023-03-26T04:59:54;13.70;;;13.20;;
6121;SDS011;3091;51.506;7.672;2023-03-26T05:02:20;14.03;;;13.43;;
6121;SDS011;3091;51.506;7.672;2023-03-26T05:04:47;13.40;;;12.90;;
6121;SDS011;3091;51.506;7.672;2023-03-26T05:07:16;13.90;;;13.10;;
6121;SDS011;3091;51.506;7.672;2023-03-26T05:09:43;13.63;;;13.13;;
6121;SDS011;3091;51.506;7.672;2023-03-26T05:12:09;14.13;;;13.63;;
6121;SDS011;3091;51.506;7.672;2023-03-26T05:14:35;13.37;;;12.87;;
6121;SDS011;3091;51.506;7.672;2023-03-26T05:17:02;14.47;;;13.87;;
6121;SDS011;3091;51.506;7.672;2023-03-26T05:19:30;14.20;;;13.60;;
6121;SDS011;3091;51.506;7.672;2023-03-26T05:21:56;15.07;;;13.43;;
6121;SDS011;3091;51.506;7.672;2023-03-26T05:24:22;13.77;;;13.27;;
6121;SDS011;3091;51.506;7.672;2023-03-26T05:26:49;13.20;;;12.70;;
6121;SDS011;3091;51.506;7.672;2023-03-26T05:29:15;13.63;;;13.13;;
6121;SDS011;3091;51.506;7.672;2023-03-26T05:31:41;14.00;;;13.50;;
6121;SDS011;3091;51.506;7.672;2023-03-26T05:34:08;14.30;;;13.70;;
6121;SDS011;3091;51.506;7.672;2023-03-26T05:36:34;14.50;;;13.90;;
6121;SDS011;3091;51.506;7.672;2023-03-26T05:39:00;15.60;;;15.00;;
6121;SDS011;3091;51.506;7.672;2023-03-26T05:41:27;15.97;;;15.37;;
6121;SDS011;3091;51.506;7.672;2023-03-26T05:43:53;16.10;;;15.50;;
6121;SDS011;3091;51.506;7.672;2023-03-26T05:46:19;16.10;;;15.50;;
6121;SDS011;3091;51.506;7.672;2023-03-26T05:48:47;16.50;;;15.90;;
6121;SDS011;3091;51.506;7.672;2023-03-26T05:51:13;16.03;;;15.33;;
6121;SDS011;3091;51.506;7.672;2023-03-26T05:53:39;16.03;;;15.33;;
6121;SDS011;3091;51.506;7.672;2023-03-26T05:56:05;16.20;;;15.50;;
6121;SDS011;3091;51.506;7.672;2023-03-26T05:58:32;16.60;;;15.90;;
6121;SDS011;3091;51.506;7.672;2023-03-26T06:00:58;18.60;;;17.60;;
6121;SDS011;3091;51.506;7.672;2023-03-26T06:03:26;16.93;;;16.23;;
6121;SDS011;3091;51.506;7.672;2023-03-26T06:05:52;16.70;;;16.00;;
6121;SDS011;3091;51.506;7.672;2023-03-26T06:08:18;17.10;;;16.40;;
6121;SDS011;3091;51.506;7.672;2023-03-26T06:10:45;17.10;;;16.40;;
6121;SDS011;3091;51.506;7.672;2023-03-26T06:13:11;17.43;;;16.73;;
6121;SDS011;3091;51.506;7.672;2023-03-26T06:15:37;18.47;;;17.87;;
6121;SDS011;3091;51.506;7.672;2023-03-26T06:18:03;16.57;;;15.97;;
6121;SDS011;3091;51.506;7.672;2023-03-26T06:20:29;16.63;;;16.03;;
6121;SDS011;3091;51.506;7.672;2023-03-26T06:22:55;17.00;;;16.40;;
6121;SDS011;3091;51.506;7.672;2023-03-26T06:25:21;17.40;;;16.80;;
6121;SDS011;3091;51.506;7.672;2023-03-26T06:27:47;22.00;;;21.20;;
6121;SDS011;3091;51.506;7.672;2023-03-26T06:30:13;20.23;;;19.53;;
6121;SDS011;3091;51.506;7.672;2023-03-26T06:32:40;18.60;;;17.90;;
6121;SDS011;3091;51.506;7.672;2023-03-26T06:35:06;17.27;;;16.67;;
6121;SDS011;3091;51.506;7.672;2023-03-26T06:37:32;17.57;;;16.87;;
6121;SDS011;3091;51.506;7.672;2023-03-26T06:39:58;17.33;;;16.63;;
6121;SDS011;3091;51.506;7.672;2023-03-26T06:42:24;18.83;;;18.03;;
6121;SDS011;3091;51.506;7.672;2023-03-26T06:44:50;17.90;;;16.90;;
6121;SDS011;3091;51.506;7.672;2023-03-26T06:47:16;17.43;;;16.73;;
6121;SDS011;3091;51.506;7.672;2023-03-26T06:49:42;17.53;;;16.83;;
6121;SDS011;3091;51.506;7.672;2023-03-26T06:52:08;18.07;;;17.47;;
6121;SDS011;3091;51.506;7.672;2023-03-26T06:54:34;16.67;;;16.13;;
6121;SDS011;3091;51.506;7.672;2023-03-26T06:57:00;16.73;;;16.13;;
6121;SDS011;3091;51.506;7.672;2023-03-26T06:59:26;15.60;;;15.10;;
6121;SDS011;3091;51.506;7.672;2023-03-26T07:01:52;16.30;;;15.70;;
6121;SDS011;3091;51.506;7.672;2023-03-26T07:04:18;16.57;;;15.77;;
6121;SDS011;3091;51.506;7.672;2023-03-26T07:06:44;15.60;;;15.10;;
6121;SDS011;3091;51.506;7.672;2023-03-26T07:09:10;16.50;;;15.90;;
6121;SDS011;3091;51.506;7.672;2023-03-26T07:11:36;16.50;;;15.90;;
6121;SDS011;3091;51.506;7.672;2023-03-26T07:14:02;19.47;;;18.47;;
6121;SDS011;3091;51.506;7.672;2023-03-26T07:16:28;17.07;;;16.37;;
6121;SDS011;3091;51.506;7.672;2023-03-26T07:18:54;18.80;;;17.77;;
6121;SDS011;3091;51.506;7.672;2023-03-26T07:21:20;17.20;;;16.50;;
6121;SDS011;3091;51.506;7.672;2023-03-26T07:23:46;16.77;;;16.17;;
6121;SDS011;3091;51.506;7.672;2023-03-26T07:26:27;17.07;;;16.37;;
6121;SDS011;3091;51.506;7.672;2023-03-26T07:29:09;16.43;;;15.83;;
6121;SDS011;3091;51.506;7.672;2023-03-26T07:31:53;19.00;;;18.30;;
6121;SDS011;3091;51.506;7.672;2023-03-26T07:34:27;20.60;;;19.80;;
6121;SDS011;3091;51.506;7.672;2023-03-26T07:39:46;21.40;;;20.53;;
6121;SDS011;3091;51.506;7.672;2023-03-26T07:42:21;23.00;;;22.10;;
6121;SDS011;3091;51.506;7.672;2023-03-26T07:47:28;27.67;;;26.13;;
6121;SDS011;3091;51.506;7.672;2023-03-26T07:49:55;31.10;;;29.90;;
6121;SDS011;3091;51.506;7.672;2023-03-26T07:52:21;37.73;;;35.97;;
6121;SDS011;3091;51.506;7.672;2023-03-26T07:54:50;47.07;;;45.07;;
6121;SDS011;3091;51.506;7.672;2023-03-26T08:00:12;60.70;;;57.40;;
6121;SDS011;3091;51.506;7.672;2023-03-26T08:05:14;80.13;;;76.57;;
6121;SDS011;3091;51.506;7.672;2023-03-26T08:17:53;119.13;;;114.27;;
6121;SDS011;3091;51.506;7.672;2023-03-26T08:25:48;106.50;;;101.83;;
6121;SDS011;3091;51.506;7.672;2023-03-26T08:30:44;115.80;;;110.70;;
6121;SDS011;3091;51.506;7.672;2023-03-26T08:33:17;111.37;;;105.97;;
6121;SDS011;3091;51.506;7.672;2023-03-26T08:35:44;110.63;;;105.63;;
6121;SDS011;3091;51.506;7.672;2023-03-26T08:38:11;111.47;;;106.30;;
6121;SDS011;3091;51.506;7.672;2023-03-26T08:46:11;103.37;;;98.47;;
6121;SDS011;3091;51.506;7.672;2023-03-26T08:54:18;128.67;;;122.77;;
6121;SDS011;3091;51.506;7.672;2023-03-26T08:56:50;129.37;;;123.77;;
6121;SDS011;3091;51.506;7.672;2023-03-26T09:37:16;117.07;;;111.77;;
6121;SDS011;3091;51.506;7.672;2023-03-26T09:44:49;108.10;;;102.80;;
6121;SDS011;3091;51.506;7.672;2023-03-26T10:00:37;95.30;;;90.70;;
6121;SDS011;3091;51.506;7.672;2023-03-26T10:03:14;98.10;;;93.40;;
6121;SDS011;3091;51.506;7.672;2023-03-26T10:05:48;106.33;;;101.53;;
6121;SDS011;3091;51.506;7.672;2023-03-26T10:16:22;103.37;;;98.77;;
6121;SDS011;3091;51.506;7.672;2023-03-26T10:24:12;97.97;;;93.50;;
6121;SDS011;3091;51.506;7.672;2023-03-26T10:37:08;97.30;;;92.80;;
6121;SDS011;3091;51.506;7.672;2023-03-26T10:47:25;87.53;;;83.13;;
6121;SDS011;3091;51.506;7.672;2023-03-26T10:55:20;98.33;;;93.73;;
6121;SDS011;3091;51.506;7.672;2023-03-26T11:03:02;99.00;;;94.40;;
6121;SDS011;3091;51.506;7.672;2023-03-26T11:05:31;91.20;;;86.80;;
6121;SDS011;3091;51.506;7.672;2023-03-26T11:08:08;92.40;;;88.00;;
6121;SDS011;3091;51.506;7.672;2023-03-26T11:13:12;80.97;;;76.83;;
6121;SDS011;3091;51.506;7.672;2023-03-26T11:26:16;78.13;;;74.07;;
6121;SDS011;3091;51.506;7.672;2023-03-26T11:29:04;94.33;;;89.93;;
6121;SDS011;3091;51.506;7.672;2023-03-26T11:34:16;91.93;;;87.53;;
6121;SDS011;3091;51.506;7.672;2023-03-26T11:36:47;90.37;;;86.07;;
6121;SDS011;3091;51.506;7.672;2023-03-26T11:39:18;94.53;;;90.23;;
6121;SDS011;3091;51.506;7.672;2023-03-26T11:41:46;87.37;;;83.37;;
6121;SDS011;3091;51.506;7.672;2023-03-26T11:44:20;82.53;;;78.63;;
6121;SDS011;3091;51.506;7.672;2023-03-26T11:46:47;87.37;;;83.27;;
6121;SDS011;3091;51.506;7.672;2023-03-26T11:49:15;84.17;;;80.17;;
6121;SDS011;3091;51.506;7.672;2023-03-26T11:51:42;89.10;;;84.80;;
6121;SDS011;3091;51.506;7.672;2023-03-26T11:54:11;98.67;;;93.97;;
6121;SDS011;3091;51.506;7.672;2023-03-26T11:56:47;96.20;;;91.80;;
6121;SDS011;3091;51.506;7.672;2023-03-26T11:59:26;96.07;;;91.77;;
6121;SDS011;3091;51.506;7.672;2023-03-26T12:01:57;103.93;;;99.07;;
6121;SDS011;3091;51.506;7.672;2023-03-26T12:04:25;101.70;;;97.30;;
6121;SDS011;3091;51.506;7.672;2023-03-26T12:09:36;102.43;;;97.90;;
6121;SDS011;3091;51.506;7.672;2023-03-26T12:12:02;100.70;;;96.20;;
6121;SDS011;3091;51.506;7.672;2023-03-26T12:14:30;109.47;;;104.57;;
6121;SDS011;3091;51.506;7.672;2023-03-26T12:19:23;104.23;;;99.73;;
6121;SDS011;3091;51.506;7.672;2023-03-26T12:21:51;130.60;;;125.40;;
6121;SDS011;3091;51.506;7.672;2023-03-26T12:24:25;141.17;;;134.90;;
6121;SDS011;3091;51.506;7.672;2023-03-26T12:26:56;125.70;;;120.80;;
6121;SDS011;3091;51.506;7.672;2023-03-26T12:29:26;99.47;;;95.43;;
6121;SDS011;3091;51.506;7.672;2023-03-26T12:31:57;90.83;;;87.03;;
6121;SDS011;3091;51.506;7.672;2023-03-26T12:34:28;88.23;;;84.53;;
6121;SDS011;3091;51.506;7.672;2023-03-26T12:36:56;81.50;;;77.80;;
6121;SDS011;3091;51.506;7.672;2023-03-26T12:41:54;79.57;;;75.97;;
6121;SDS011;3091;51.506;7.672;2023-03-26T12:49:34;88.97;;;85.27;;
6121;SDS011;3091;51.506;7.672;2023-03-26T12:54:40;96.53;;;92.60;;
6121;SDS011;3091;51.506;7.672;2023-03-26T13:15:55;55.50;;;52.87;;
6121;SDS011;3091;51.506;7.672;2023-03-26T13:18:16;45.80;;;43.50;;
6121;SDS011;3091;51.506;7.672;2023-03-26T13:20:47;48.10;;;45.70;;
6121;SDS011;3091;51.506;7.672;2023-03-26T13:31:18;79.03;;;75.43;;
6121;SDS011;3091;51.506;7.672;2023-03-26T13:36:17;93.00;;;89.10;;
6121;SDS011;3091;51.506;7.672;2023-03-26T13:47:02;66.00;;;63.00;;
6121;SDS011;3091;51.506;7.672;2023-03-26T13:49:35;54.60;;;52.00;;
6121;SDS011;3091;51.506;7.672;2023-03-26T13:52:14;44.50;;;42.30;;
6121;SDS011;3091;51.506;7.672;2023-03-26T13:54:43;46.17;;;43.87;;
6121;SDS011;3091;51.506;7.672;2023-03-26T14:05:08;70.90;;;67.73;;
6121;SDS011;3091;51.506;7.672;2023-03-26T14:10:09;91.70;;;87.90;;
6121;SDS011;3091;51.506;7.672;2023-03-26T14:12:41;99.23;;;95.13;;
6121;SDS011;3091;51.506;7.672;2023-03-26T14:15:14;106.60;;;102.20;;
6121;SDS011;3091;51.506;7.672;2023-03-26T14:17:46;102.37;;;98.07;;
6121;SDS011;3091;51.506;7.672;2023-03-26T14:23:15;115.47;;;110.67;;
6121;SDS011;3091;51.506;7.672;2023-03-26T14:26:05;106.13;;;101.57;;
6121;SDS011;3091;51.506;7.672;2023-03-26T14:48:55;117.17;;;112.47;;
6121;SDS011;3091;51.506;7.672;2023-03-26T14:51:46;120.27;;;115.47;;
6121;SDS011;3091;51.506;7.672;2023-03-26T14:54:11;107.17;;;102.87;;
6121;SDS011;3091;51.506;7.672;2023-03-26T14:56:50;91.67;;;87.73;;
6121;SDS011;3091;51.506;7.672;2023-03-26T15:02:14;91.60;;;87.60;;
6121;SDS011;3091;51.506;7.672;2023-03-26T15:10:10;123.13;;;118.17;;
6121;SDS011;3091;51.506;7.672;2023-03-26T15:12:59;102.20;;;97.60;;
6121;SDS011;3091;51.506;7.672;2023-03-26T15:39:16;91.10;;;86.70;;
6121;SDS011;3091;51.506;7.672;2023-03-26T15:41:55;98.40;;;93.80;;
6121;SDS011;3091;51.506;7.672;2023-03-26T15:47:34;106.27;;;101.47;;
6121;SDS011;3091;51.506;7.672;2023-03-26T15:52:55;92.10;;;87.70;;
6121;SDS011;3091;51.506;7.672;2023-03-26T15:58:43;73.77;;;69.77;;
6121;SDS011;3091;51.506;7.672;2023-03-26T16:00:53;72.50;;;68.50;;
6121;SDS011;3091;51.506;7.672;2023-03-26T16:03:28;75.80;;;71.70;;
6121;SDS011;3091;51.506;7.672;2023-03-26T16:06:14;80.57;;;76.37;;
6121;SDS011;3091;51.506;7.672;2023-03-26T16:11:56;70.77;;;66.87;;
6121;SDS011;3091;51.506;7.672;2023-03-26T16:17:01;72.10;;;68.20;;
6121;SDS011;3091;51.506;7.672;2023-03-26T16:19:32;69.60;;;65.80;;
6121;SDS011;3091;51.506;7.672;2023-03-26T16:22:04;65.73;;;62.03;;
6121;SDS011;3091;51.506;7.672;2023-03-26T16:24:34;72.23;;;68.13;;
6121;SDS011;3091;51.506;7.672;2023-03-26T16:29:32;68.03;;;63.97;;
6121;SDS011;3091;51.506;7.672;2023-03-26T16:34:39;68.40;;;64.60;;
6121;SDS011;3091;51.506;7.672;2023-03-26T16:37:25;62.07;;;58.37;;
6121;SDS011;3091;51.506;7.672;2023-03-26T16:39:52;58.80;;;55.30;;
6121;SDS011;3091;51.506;7.672;2023-03-26T16:42:39;61.93;;;58.13;;
6121;SDS011;3091;51.506;7.672;2023-03-26T16:47:34;64.10;;;60.17;;
6121;SDS011;3091;51.506;7.672;2023-03-26T16:55:03;79.20;;;74.33;;
6121;SDS011;3091;51.506;7.672;2023-03-26T17:00:20;69.40;;;65.10;;
6121;SDS011;3091;51.506;7.672;2023-03-26T17:05:39;75.20;;;71.00;;
6121;SDS011;3091;51.506;7.672;2023-03-26T17:08:18;74.20;;;70.00;;
6121;SDS011;3091;51.506;7.672;2023-03-26T17:10:56;73.90;;;69.80;;
6121;SDS011;3091;51.506;7.672;2023-03-26T17:26:28;62.43;;;58.53;;
6121;SDS011;3091;51.506;7.672;2023-03-26T17:29:09;61.73;;;57.93;;
6121;SDS011;3091;51.506;7.672;2023-03-26T17:31:42;59.80;;;55.70;;
6121;SDS011;3091;51.506;7.672;2023-03-26T17:34:30;57.70;;;54.00;;
6121;SDS011;3091;51.506;7.672;2023-03-26T17:36:57;56.57;;;52.97;;
6121;SDS011;3091;51.506;7.672;2023-03-26T17:42:28;53.20;;;49.60;;
6121;SDS011;3091;51.506;7.672;2023-03-26T17:44:57;51.63;;;48.33;;
6121;SDS011;3091;51.506;7.672;2023-03-26T17:49:52;57.40;;;53.80;;
6121;SDS011;3091;51.506;7.672;2023-03-26T17:52:21;58.83;;;55.13;;
6121;SDS011;3091;51.506;7.672;2023-03-26T17:54:50;58.67;;;54.90;;
6121;SDS011;3091;51.506;7.672;2023-03-26T17:57:21;60.20;;;56.40;;
6121;SDS011;3091;51.506;7.672;2023-03-26T17:59:49;69.47;;;64.63;;
6121;SDS011;3091;51.506;7.672;2023-03-26T18:02:18;80.60;;;75.90;;
6121;SDS011;3091;51.506;7.672;2023-03-26T18:04:45;97.47;;;89.53;;
6121;SDS011;3091;51.506;7.672;2023-03-26T18:18:10;120.93;;;114.93;;
6121;SDS011;3091;51.506;7.672;2023-03-26T18:20:42;118.57;;;112.67;;
6121;SDS011;3091;51.506;7.672;2023-03-26T18:23:11;121.90;;;115.60;;
6121;SDS011;3091;51.506;7.672;2023-03-26T18:25:47;127.57;;;121.00;;
6121;SDS011;3091;51.506;7.672;2023-03-26T18:28:16;133.00;;;126.80;;
6121;SDS011;3091;51.506;7.672;2023-03-26T18:30:44;131.50;;;125.40;;
6121;SDS011;3091;51.506;7.672;2023-03-26T18:33:12;134.43;;;128.03;;
6121;SDS011;3091;51.506;7.672;2023-03-26T18:35:43;137.70;;;131.20;;
6121;SDS011;3091;51.506;7.672;2023-03-26T18:38:15;137.87;;;131.00;;
6121;SDS011;3091;51.506;7.672;2023-03-26T18:40:43;133.97;;;127.87;;
6121;SDS011;3091;51.506;7.672;2023-03-26T18:43:14;132.27;;;126.27;;
6121;SDS011;3091;51.506;7.672;2023-03-26T18:45:40;139.93;;;132.03;;
6121;SDS011;3091;51.506;7.672;2023-03-26T18:48:19;135.47;;;129.37;;
6121;SDS011;3091;51.506;7.672;2023-03-26T18:50:55;137.30;;;131.20;;
6121;SDS011;3091;51.506;7.672;2023-03-26T18:53:25;140.73;;;134.63;;
6121;SDS011;3091;51.506;7.672;2023-03-26T18:55:53;133.80;;;127.90;;
6121;SDS011;3091;51.506;7.672;2023-03-26T18:58:23;133.97;;;127.97;;
6121;SDS011;3091;51.506;7.672;2023-03-26T19:00:51;145.40;;;139.20;;
6121;SDS011;3091;51.506;7.672;2023-03-26T19:03:21;140.83;;;134.73;;
6121;SDS011;3091;51.506;7.672;2023-03-26T19:05:48;144.50;;;138.50;;
6121;SDS011;3091;51.506;7.672;2023-03-26T19:08:15;135.60;;;130.03;;
6121;SDS011;3091;51.506;7.672;2023-03-26T19:10:41;126.23;;;121.03;;
6121;SDS011;3091;51.506;7.672;2023-03-26T19:13:12;114.40;;;109.60;;
6121;SDS011;3091;51.506;7.672;2023-03-26T19:15:39;104.17;;;99.67;;
6121;SDS011;3091;51.506;7.672;2023-03-26T19:18:06;87.23;;;83.20;;
6121;SDS011;3091;51.506;7.672;2023-03-26T19:23:04;57.87;;;55.17;;
6121;SDS011;3091;51.506;7.672;2023-03-26T19:25:35;50.50;;;48.10;;
6121;SDS011;3091;51.506;7.672;2023-03-26T19:28:04;47.13;;;44.60;;
6121;SDS011;3091;51.506;7.672;2023-03-26T19:30:34;37.93;;;36.23;;
6121;SDS011;3091;51.506;7.672;2023-03-26T19:33:02;36.70;;;35.00;;
6121;SDS011;3091;51.506;7.672;2023-03-26T19:35:32;30.90;;;29.30;;
6121;SDS011;3091;51.506;7.672;2023-03-26T19:38:00;29.00;;;27.03;;
6121;SDS011;3091;51.506;7.672;2023-03-26T19:40:26;29.23;;;27.93;;
6121;SDS011;3091;51.506;7.672;2023-03-26T19:42:58;26.27;;;25.17;;
6121;SDS011;3091;51.506;7.672;2023-03-26T19:45:24;25.77;;;24.37;;
6121;SDS011;3091;51.506;7.672;2023-03-26T19:47:51;25.47;;;24.27;;
6121;SDS011;3091;51.506;7.672;2023-03-26T19:52:43;24.00;;;22.90;;
6121;SDS011;3091;51.506;7.672;2023-03-26T19:55:16;23.63;;;22.63;;
6121;SDS011;3091;51.506;7.672;2023-03-26T19:57:44;21.20;;;20.30;;
6121;SDS011;3091;51.506;7.672;2023-03-26T20:00:10;21.40;;;20.50;;
6121;SDS011;3091;51.506;7.672;2023-03-26T20:02:40;19.83;;;19.00;;
6121;SDS011;3091;51.506;7.672;2023-03-26T20:05:26;19.63;;;18.43;;
6121;SDS011;3091;51.506;7.672;2023-03-26T20:07:56;18.80;;;17.80;;
6121;SDS011;3091;51.506;7.672;2023-03-26T20:10:23;16.13;;;15.43;;
6121;SDS011;3091;51.506;7.672;2023-03-26T20:12:50;15.20;;;14.70;;
6121;SDS011;3091;51.506;7.672;2023-03-26T20:15:20;14.97;;;14.47;;
6121;SDS011;3091;51.506;7.672;2023-03-26T20:17:46;15.77;;;15.07;;
6121;SDS011;3091;51.506;7.672;2023-03-26T20:20:28;14.87;;;14.37;;
6121;SDS011;3091;51.506;7.672;2023-03-26T20:22:55;16.90;;;16.30;;
6121;SDS011;3091;51.506;7.672;2023-03-26T20:25:54;14.73;;;14.23;;
6121;SDS011;3091;51.506;7.672;2023-03-26T20:28:15;15.73;;;15.13;;
6121;SDS011;3091;51.506;7.672;2023-03-26T20:30:45;15.10;;;14.60;;
6121;SDS011;3091;51.506;7.672;2023-03-26T20:33:15;15.00;;;14.50;;
6121;SDS011;3091;51.506;7.672;2023-03-26T20:35:43;15.70;;;15.00;;
6121;SDS011;3091;51.506;7.672;2023-03-26T20:38:09;16.43;;;15.73;;
6121;SDS011;3091;51.506;7.672;2023-03-26T20:40:35;15.67;;;15.07;;
6121;SDS011;3091;51.506;7.672;2023-03-26T20:43:04;16.87;;;15.60;;
6121;SDS011;3091;51.506;7.672;2023-03-26T20:45:34;16.03;;;15.43;;
6121;SDS011;3091;51.506;7.672;2023-03-26T20:48:00;16.47;;;15.87;;
6121;SDS011;3091;51.506;7.672;2023-03-26T20:50:26;16.40;;;15.80;;
6121;SDS011;3091;51.506;7.672;2023-03-26T20:52:52;17.97;;;17.27;;
6121;SDS011;3091;51.506;7.672;2023-03-26T20:55:19;16.47;;;15.87;;
6121;SDS011;3091;51.506;7.672;2023-03-26T20:57:45;16.70;;;16.10;;